Terminal Aerodrome Forecast
Issued by NWS Jackson, KY

Home | Current Version | Previous Version | Text Only | Print | Product List | Glossary On
Versions: 1 2 3 4 5 6 7 8 9 10 11 12 13 14 15
000
FTUS43 KJKL 031121
TAFLOZ
TAF
KLOZ 031121Z 0312/0412 00000KT P6SM OVC027
     FM031400 20005KT 6SM -SHRA OVC007
     FM031900 20006KT 3SM SHRA VCTS FEW005 OVC010CB
     FM040300 21008KT 1SM +RA OVC005=

USA.gov is the U.S. government's official web portal to all federal, state and local government web resources and services.